Time;durP1;ratioP1;P1;durP2;ratioP2;P2;SDS_P1;SDS_P2;PMS_P1;PMS_P2;Temp;Humidity;BMP_temperature;BMP_pressure;BME280_temperature;BME280_humidity;BME280_pressure;Samples;Min_cycle;Max_cycle;Signal;HPM_P1;HPM_P2
2021/07/27 00:01:18;;;;;;;27.13;24.23;;;;;;;;;;5006700;28;20061;-83
2021/07/27 00:03:45;;;;;;;28.15;25.17;;;;;;;;;;5014182;28;20054;-84
2021/07/27 00:06:11;;;;;;;28.02;25.02;;;;;;;;;;5014385;28;20054;-83
2021/07/27 00:08:38;;;;;;;26.63;23.73;;;;;;;;;;5003400;28;20065;-83
2021/07/27 00:11:08;;;;;;;27.65;24.58;;;;;;;;;;5006038;28;20053;-82
2021/07/27 00:13:35;;;;;;;29.67;26.48;;;;;;;;;;5003838;28;20541;-85
2021/07/27 00:16:01;;;;;;;31.73;27.35;;;;;;;;;;5006479;28;20069;-83
2021/07/27 00:18:27;;;;;;;31.00;27.20;;;;;;;;;;5005465;28;20049;-83
2021/07/27 00:20:54;;;;;;;30.33;26.55;;;;;;;;;;5005701;28;20326;-84
2021/07/27 00:23:20;;;;;;;30.30;26.83;;;;;;;;;;5007554;28;20050;-83
2021/07/27 00:25:48;;;;;;;30.60;26.15;;;;;;;;;;5006922;28;20531;-83
2021/07/27 00:28:15;;;;;;;32.17;27.92;;;;;;;;;;4997121;28;20061;-83
2021/07/27 00:30:41;;;;;;;33.30;27.75;;;;;;;;;;5008632;28;20045;-84
2021/07/27 00:33:08;;;;;;;33.72;28.52;;;;;;;;;;5026096;28;20065;-83
2021/07/27 00:35:34;;;;;;;41.47;30.70;;;;;;;;;;5009369;28;20439;-84
2021/07/27 00:38:10;;;;;;;35.90;30.20;;;;;;;;;;5010892;28;20053;-83
2021/07/27 00:40:40;;;;;;;36.28;29.55;;;;;;;;;;5005435;28;20574;-85
2021/07/27 00:43:07;;;;;;;37.78;29.85;;;;;;;;;;4987808;28;20069;-83
2021/07/27 00:45:34;;;;;;;36.15;29.83;;;;;;;;;;5005260;28;20112;-85
2021/07/27 00:48:00;;;;;;;33.65;28.38;;;;;;;;;;5006785;28;20076;-83
2021/07/27 00:50:27;;;;;;;37.45;29.23;;;;;;;;;;5003748;28;20145;-82
2021/07/27 00:52:56;;;;;;;37.80;30.17;;;;;;;;;;5006098;28;20054;-83
2021/07/27 00:55:22;;;;;;;35.05;26.63;;;;;;;;;;5004683;28;20144;-84
2021/07/27 00:57:49;;;;;;;38.30;28.67;;;;;;;;;;5001660;28;20050;-83
2021/07/27 01:00:15;;;;;;;35.88;27.67;;;;;;;;;;5003731;28;20090;-83
2021/07/27 01:02:43;;;;;;;29.13;23.08;;;;;;;;;;5005033;28;20053;-83
2021/07/27 01:05:10;;;;;;;27.63;21.63;;;;;;;;;;5004917;28;20082;-83
2021/07/27 01:07:37;;;;;;;23.17;19.27;;;;;;;;;;5002132;28;20492;-85
2021/07/27 01:10:07;;;;;;;22.85;18.08;;;;;;;;;;5007018;28;20450;-83
2021/07/27 01:12:33;;;;;;;19.65;15.25;;;;;;;;;;5021459;28;20140;-84
2021/07/27 01:14:59;;;;;;;19.05;15.23;;;;;;;;;;5000233;28;20061;-82
2021/07/27 01:17:26;;;;;;;15.90;13.85;;;;;;;;;;5007358;28;20054;-82
2021/07/27 01:44:04;;;;;;;10.05;8.30;;;;;;;;;;5026622;28;20057;-84
2021/07/27 01:46:34;;;;;;;12.73;8.88;;;;;;;;;;5027987;28;20608;-83
2021/07/27 01:49:01;;;;;;;10.40;8.90;;;;;;;;;;5027332;28;20076;-83
2021/07/27 01:51:27;;;;;;;11.32;8.85;;;;;;;;;;5028651;28;20053;-83
2021/07/27 01:53:54;;;;;;;10.70;9.18;;;;;;;;;;5015435;28;20049;-83
2021/07/27 01:59:42;;;;;;;9.48;8.27;;;;;;;;;;5334008;23;20046;-84
2021/07/27 02:02:12;;;;;;;9.45;7.95;;;;;;;;;;4990045;28;20057;-83
2021/07/27 02:04:38;;;;;;;9.40;8.40;;;;;;;;;;4970295;28;20570;-83
2021/07/27 02:07:05;;;;;;;11.50;7.93;;;;;;;;;;4972310;28;20057;-83
2021/07/27 02:09:39;;;;;;;10.63;8.57;;;;;;;;;;4988469;28;20050;-84
2021/07/27 02:12:05;;;;;;;11.27;8.20;;;;;;;;;;4989510;28;20058;-83
2021/07/27 02:15:04;;;;;;;10.02;8.13;;;;;;;;;;4966849;28;20050;-84
2021/07/27 02:17:21;;;;;;;11.85;9.20;;;;;;;;;;4984282;28;20058;-84
2021/07/27 02:19:47;;;;;;;13.10;10.30;;;;;;;;;;4988651;28;20053;-83
2021/07/27 02:22:13;;;;;;;14.88;10.43;;;;;;;;;;4987822;28;20079;-83
2021/07/27 02:24:40;;;;;;;18.02;11.27;;;;;;;;;;4969139;28;20050;-84
2021/07/27 02:27:08;;;;;;;17.23;12.10;;;;;;;;;;4972602;28;20412;-84
2021/07/27 02:29:34;;;;;;;20.15;13.52;;;;;;;;;;4987498;28;20050;-84
2021/07/27 02:32:01;;;;;;;17.65;13.75;;;;;;;;;;4971966;28;20073;-84
2021/07/27 02:34:31;;;;;;;20.15;15.48;;;;;;;;;;4980750;28;20047;-83
2021/07/27 02:36:58;;;;;;;19.52;15.20;;;;;;;;;;4954051;28;20055;-84
2021/07/27 02:39:24;;;;;;;20.73;15.65;;;;;;;;;;4979744;28;20429;-84
2021/07/27 02:41:50;;;;;;;19.95;16.15;;;;;;;;;;4971612;28;20065;-84
2021/07/27 02:44:17;;;;;;;23.33;16.58;;;;;;;;;;4984252;28;20261;-83
2021/07/27 02:46:43;;;;;;;27.52;19.35;;;;;;;;;;4987495;28;20073;-84
2021/07/27 02:49:09;;;;;;;23.85;18.52;;;;;;;;;;4989085;28;20093;-83
2021/07/27 02:51:36;;;;;;;26.85;20.20;;;;;;;;;;4988001;28;20066;-84
2021/07/27 02:54:02;;;;;;;23.25;18.05;;;;;;;;;;4969002;28;20235;-82
2021/07/27 02:56:28;;;;;;;23.08;16.30;;;;;;;;;;4987117;28;20065;-83
2021/07/27 02:58:54;;;;;;;23.60;18.10;;;;;;;;;;4988694;28;20050;-84
2021/07/27 03:01:21;;;;;;;23.67;18.70;;;;;;;;;;4987275;28;20058;-84
2021/07/27 03:03:48;;;;;;;23.27;18.08;;;;;;;;;;4987746;28;20109;-84
2021/07/27 03:06:33;;;;;;;24.52;19.05;;;;;;;;;;4971722;28;20126;-84
2021/07/27 03:11:26;;;;;;;24.60;19.67;;;;;;;;;;4985742;28;20050;-83
2021/07/27 03:13:56;;;;;;;26.13;19.75;;;;;;;;;;4977860;28;20061;-83
2021/07/27 03:16:23;;;;;;;24.17;19.77;;;;;;;;;;4968417;28;20061;-83
2021/07/27 03:18:51;;;;;;;24.20;19.20;;;;;;;;;;4960423;28;20519;-84
2021/07/27 03:21:21;;;;;;;26.27;18.90;;;;;;;;;;4957067;28;20051;-84
2021/07/27 03:23:47;;;;;;;25.13;19.08;;;;;;;;;;4976303;28;20051;-84
2021/07/27 03:26:15;;;;;;;25.73;19.45;;;;;;;;;;4986802;28;20137;-84
2021/07/27 03:28:41;;;;;;;21.85;17.80;;;;;;;;;;4985905;28;20113;-84
2021/07/27 03:31:07;;;;;;;22.20;16.92;;;;;;;;;;4965874;28;20062;-84
2021/07/27 03:33:34;;;;;;;21.90;16.38;;;;;;;;;;4967814;28;20133;-84
2021/07/27 03:36:00;;;;;;;22.27;16.00;;;;;;;;;;4972107;28;20046;-84
2021/07/27 03:38:26;;;;;;;20.95;16.42;;;;;;;;;;4968056;28;20052;-83
2021/07/27 03:40:52;;;;;;;19.58;15.57;;;;;;;;;;4970014;28;20133;-83
2021/07/27 03:43:18;;;;;;;17.52;14.65;;;;;;;;;;4986034;28;20074;-84
2021/07/27 03:45:44;;;;;;;22.02;15.27;;;;;;;;;;4987141;28;20058;-84
2021/07/27 03:48:16;;;;;;;19.75;15.70;;;;;;;;;;4986148;28;20054;-83
2021/07/27 03:50:43;;;;;;;19.77;15.30;;;;;;;;;;4984607;28;20582;-84
2021/07/27 03:53:18;;;;;;;22.67;15.80;;;;;;;;;;4985920;28;20970;-84
2021/07/27 03:55:45;;;;;;;19.88;15.43;;;;;;;;;;4984717;28;20065;-84
2021/07/27 03:58:11;;;;;;;20.23;16.27;;;;;;;;;;4967985;28;20504;-84
2021/07/27 04:00:37;;;;;;;19.77;15.77;;;;;;;;;;4986034;28;20532;-84
2021/07/27 04:03:04;;;;;;;20.50;16.05;;;;;;;;;;4987353;28;20121;-84
2021/07/27 04:05:32;;;;;;;20.90;16.67;;;;;;;;;;4985966;28;20141;-84
2021/07/27 04:07:58;;;;;;;19.45;15.98;;;;;;;;;;4968587;28;20042;-83
2021/07/27 04:10:25;;;;;;;20.55;15.10;;;;;;;;;;4986139;28;20137;-85
2021/07/27 04:12:51;;;;;;;20.63;16.63;;;;;;;;;;4985562;28;20054;-83
2021/07/27 04:15:18;;;;;;;21.23;16.13;;;;;;;;;;4987504;28;20117;-84
2021/07/27 04:17:45;;;;;;;19.40;15.23;;;;;;;;;;4975084;28;20446;-84
2021/07/27 04:20:11;;;;;;;20.90;16.05;;;;;;;;;;4950644;28;20468;-83
2021/07/27 04:22:37;;;;;;;20.70;15.30;;;;;;;;;;4983895;28;20058;-83
2021/07/27 04:25:03;;;;;;;21.67;16.13;;;;;;;;;;4969947;28;20500;-84
2021/07/27 04:27:30;;;;;;;21.95;16.48;;;;;;;;;;4984872;28;20038;-84
2021/07/27 04:29:56;;;;;;;26.98;17.13;;;;;;;;;;4969596;28;20050;-84
2021/07/27 04:32:22;;;;;;;23.45;17.58;;;;;;;;;;4987685;28;20496;-84
2021/07/27 04:34:50;;;;;;;23.58;16.35;;;;;;;;;;4986781;28;20046;-84
2021/07/27 04:37:17;;;;;;;22.40;17.52;;;;;;;;;;4986365;28;20054;-85
2021/07/27 04:39:43;;;;;;;23.48;16.95;;;;;;;;;;4985712;28;20343;-85
2021/07/27 04:42:13;;;;;;;22.38;17.40;;;;;;;;;;4985727;28;20126;-83
2021/07/27 04:44:39;;;;;;;27.73;20.77;;;;;;;;;;4986145;28;20491;-84
2021/07/27 04:47:08;;;;;;;24.30;17.98;;;;;;;;;;4989517;28;20093;-84
2021/07/27 04:49:34;;;;;;;24.83;18.40;;;;;;;;;;4971013;28;20063;-83
2021/07/27 04:52:01;;;;;;;21.33;17.08;;;;;;;;;;4972451;28;20051;-83
2021/07/27 04:54:40;;;;;;;22.98;17.88;;;;;;;;;;4989657;28;20089;-85
2021/07/27 04:57:10;;;;;;;23.75;18.17;;;;;;;;;;4969633;28;20519;-83
2021/07/27 04:59:36;;;;;;;21.65;17.10;;;;;;;;;;4978216;28;20043;-83
2021/07/27 05:02:02;;;;;;;24.05;17.27;;;;;;;;;;4990770;28;20112;-83
2021/07/27 05:04:30;;;;;;;23.20;17.33;;;;;;;;;;4973036;28;20129;-83
2021/07/27 05:06:56;;;;;;;23.75;17.55;;;;;;;;;;4980189;28;20057;-84
2021/07/27 05:09:22;;;;;;;22.95;17.15;;;;;;;;;;4968636;28;20050;-83
2021/07/27 05:11:48;;;;;;;19.33;16.15;;;;;;;;;;4990364;28;20105;-84
2021/07/27 05:14:15;;;;;;;21.77;16.73;;;;;;;;;;4972882;28;20677;-83
2021/07/27 05:16:41;;;;;;;18.83;15.65;;;;;;;;;;4988425;28;20053;-83
2021/07/27 05:19:11;;;;;;;20.42;15.10;;;;;;;;;;4989901;28;20424;-83
2021/07/27 05:21:37;;;;;;;21.83;15.27;;;;;;;;;;4988745;28;20050;-83
2021/07/27 05:24:04;;;;;;;20.90;15.68;;;;;;;;;;4972271;28;20050;-84
2021/07/27 05:26:30;;;;;;;20.13;15.25;;;;;;;;;;4979822;28;20054;-83
2021/07/27 05:28:56;;;;;;;18.35;15.48;;;;;;;;;;4988854;28;22080;-83
2021/07/27 05:31:24;;;;;;;17.65;13.85;;;;;;;;;;4969914;28;20039;-84
2021/07/27 05:33:50;;;;;;;17.40;14.43;;;;;;;;;;4968962;28;20491;-83
2021/07/27 05:36:16;;;;;;;17.77;13.48;;;;;;;;;;4974172;28;20065;-83
2021/07/27 05:38:43;;;;;;;17.63;13.40;;;;;;;;;;4970698;28;20058;-84
2021/07/27 05:41:09;;;;;;;16.50;13.07;;;;;;;;;;4971739;28;20566;-82
2021/07/27 05:43:35;;;;;;;18.10;13.82;;;;;;;;;;4968430;28;20058;-83
2021/07/27 05:46:04;;;;;;;19.33;14.50;;;;;;;;;;4971235;28;20054;-83
2021/07/27 05:48:30;;;;;;;18.25;13.73;;;;;;;;;;4988628;28;20050;-83
2021/07/27 05:50:58;;;;;;;17.25;13.50;;;;;;;;;;4988409;28;20061;-83
2021/07/27 05:53:24;;;;;;;20.20;14.07;;;;;;;;;;4989409;28;20054;-83
2021/07/27 05:55:50;;;;;;;19.10;14.13;;;;;;;;;;4987298;28;20050;-83
2021/07/27 05:58:35;;;;;;;18.10;14.18;;;;;;;;;;4974028;28;20189;-84
2021/07/27 06:01:01;;;;;;;18.20;14.00;;;;;;;;;;4989115;28;20046;-82
2021/07/27 06:03:28;;;;;;;19.73;15.20;;;;;;;;;;4974585;28;20129;-85
2021/07/27 06:05:54;;;;;;;18.23;14.50;;;;;;;;;;4953502;28;20104;-83
2021/07/27 06:08:21;;;;;;;21.75;16.88;;;;;;;;;;4966347;28;20492;-83
2021/07/27 06:10:47;;;;;;;22.45;17.05;;;;;;;;;;4973301;28;20057;-83
2021/07/27 06:13:14;;;;;;;21.83;16.08;;;;;;;;;;4974485;28;20074;-82
2021/07/27 06:15:40;;;;;;;26.50;17.70;;;;;;;;;;4969326;28;20374;-82
2021/07/27 06:18:06;;;;;;;24.45;17.77;;;;;;;;;;4985562;28;20598;-83
2021/07/27 06:20:32;;;;;;;21.60;17.27;;;;;;;;;;4988214;28;20492;-82
2021/07/27 06:22:58;;;;;;;22.98;18.17;;;;;;;;;;4971940;28;20062;-82
2021/07/27 06:25:24;;;;;;;21.98;17.08;;;;;;;;;;4968641;28;20051;-82
2021/07/27 06:27:51;;;;;;;20.52;16.63;;;;;;;;;;4973996;28;20051;-83
2021/07/27 06:30:17;;;;;;;20.23;16.88;;;;;;;;;;4988113;28;20126;-82
2021/07/27 06:32:43;;;;;;;22.95;18.23;;;;;;;;;;4971118;28;20080;-82
2021/07/27 06:35:11;;;;;;;24.05;18.48;;;;;;;;;;4971831;28;20129;-82
2021/07/27 06:37:37;;;;;;;19.42;16.38;;;;;;;;;;4988324;28;20058;-82
2021/07/27 06:40:03;;;;;;;23.98;18.88;;;;;;;;;;4969641;28;20094;-82
2021/07/27 06:42:30;;;;;;;25.50;18.80;;;;;;;;;;4965624;28;20064;-83
2021/07/27 06:44:56;;;;;;;24.98;19.33;;;;;;;;;;4989131;28;20089;-80
2021/07/27 06:47:22;;;;;;;25.80;19.35;;;;;;;;;;4989094;28;20061;-83
2021/07/27 06:49:48;;;;;;;24.15;19.30;;;;;;;;;;4986998;28;20050;-83
2021/07/27 06:52:14;;;;;;;26.13;20.45;;;;;;;;;;4986411;28;20050;-82
2021/07/27 06:54:40;;;;;;;25.67;20.27;;;;;;;;;;4987155;28;20066;-82
2021/07/27 06:57:06;;;;;;;27.42;20.05;;;;;;;;;;4971560;28;20530;-83
2021/07/27 06:59:33;;;;;;;30.85;22.00;;;;;;;;;;4985003;28;20050;-83
2021/07/27 07:01:59;;;;;;;27.50;21.33;;;;;;;;;;4987427;28;20050;-82
2021/07/27 07:04:25;;;;;;;25.20;19.85;;;;;;;;;;4989464;28;20054;-82
2021/07/27 07:06:51;;;;;;;30.02;21.98;;;;;;;;;;4988562;28;20257;-83
2021/07/27 07:09:18;;;;;;;28.48;21.15;;;;;;;;;;4987275;28;20058;-83
2021/07/27 07:11:44;;;;;;;27.75;22.23;;;;;;;;;;4977280;28;20167;-83
2021/07/27 07:14:10;;;;;;;26.83;20.98;;;;;;;;;;4960113;28;20431;-84
2021/07/27 07:16:36;;;;;;;31.27;24.73;;;;;;;;;;4987935;28;20085;-84
2021/07/27 07:19:02;;;;;;;31.33;24.80;;;;;;;;;;4987016;28;20436;-84
2021/07/27 07:21:29;;;;;;;34.33;25.95;;;;;;;;;;4988386;28;20086;-83
2021/07/27 07:23:55;;;;;;;30.00;22.67;;;;;;;;;;4987561;28;20105;-84
2021/07/27 07:26:21;;;;;;;34.17;24.67;;;;;;;;;;4959172;28;20054;-85
2021/07/27 07:28:47;;;;;;;34.25;25.58;;;;;;;;;;4985344;28;20177;-81
2021/07/27 07:31:16;;;;;;;33.90;25.92;;;;;;;;;;4986796;28;20140;-84
2021/07/27 07:33:42;;;;;;;34.47;25.35;;;;;;;;;;4968030;28;20070;-81
2021/07/27 07:36:09;;;;;;;32.22;24.52;;;;;;;;;;4982635;28;20056;-83
2021/07/27 07:38:36;;;;;;;38.22;27.58;;;;;;;;;;4950507;28;20074;-85
2021/07/27 07:41:05;;;;;;;37.45;27.83;;;;;;;;;;4983360;28;20086;-84
2021/07/27 07:43:31;;;;;;;39.92;29.38;;;;;;;;;;4988027;28;20129;-83
2021/07/27 07:45:57;;;;;;;35.05;26.27;;;;;;;;;;4987106;28;20050;-83
2021/07/27 07:48:23;;;;;;;38.28;29.27;;;;;;;;;;4958354;28;20055;-84
2021/07/27 07:50:49;;;;;;;38.28;30.65;;;;;;;;;;4982936;28;20042;-83
2021/07/27 07:53:15;;;;;;;37.20;27.65;;;;;;;;;;4989395;28;20046;-84
2021/07/27 07:55:42;;;;;;;40.47;30.30;;;;;;;;;;4988502;28;20050;-83
2021/07/27 07:58:08;;;;;;;45.08;29.95;;;;;;;;;;4984272;28;20141;-83
2021/07/27 08:00:34;;;;;;;40.80;31.52;;;;;;;;;;4987625;28;20103;-82
2021/07/27 08:03:03;;;;;;;43.55;33.53;;;;;;;;;;4972652;28;20064;-82
2021/07/27 08:05:30;;;;;;;46.88;35.88;;;;;;;;;;4969521;28;20058;-84
2021/07/27 08:07:56;;;;;;;50.92;37.75;;;;;;;;;;4967397;28;20054;-79
2021/07/27 08:10:23;;;;;;;46.30;35.35;;;;;;;;;;4989230;28;20050;-83
2021/07/27 08:12:49;;;;;;;53.95;37.75;;;;;;;;;;4967307;28;20129;-83
2021/07/27 08:15:16;;;;;;;55.05;39.35;;;;;;;;;;4988626;28;20050;-83
2021/07/27 08:17:42;;;;;;;50.65;35.10;;;;;;;;;;4968542;28;20051;-83
2021/07/27 08:20:09;;;;;;;53.47;37.33;;;;;;;;;;4980090;28;20062;-82
2021/07/27 08:22:37;;;;;;;55.60;38.20;;;;;;;;;;4952669;28;20390;-85
2021/07/27 08:25:03;;;;;;;54.28;39.95;;;;;;;;;;4970073;28;20051;-84
2021/07/27 08:27:29;;;;;;;48.80;37.15;;;;;;;;;;4961399;28;20045;-82
2021/07/27 08:29:55;;;;;;;42.83;34.55;;;;;;;;;;4971109;28;20043;-82
2021/07/27 08:32:21;;;;;;;48.30;36.47;;;;;;;;;;4989504;28;20053;-83
2021/07/27 08:34:47;;;;;;;51.20;37.92;;;;;;;;;;4977232;28;20456;-83
2021/07/27 08:37:14;;;;;;;52.65;39.72;;;;;;;;;;4970634;28;20050;-82
2021/07/27 08:39:40;;;;;;;49.60;36.95;;;;;;;;;;4970830;28;20082;-82
2021/07/27 08:42:06;;;;;;;52.67;38.55;;;;;;;;;;4983666;28;20057;-82
2021/07/27 08:44:34;;;;;;;49.10;35.85;;;;;;;;;;4966463;28;20054;-82
2021/07/27 08:47:01;;;;;;;48.40;36.10;;;;;;;;;;4957578;28;20070;-83
2021/07/27 08:49:31;;;;;;;46.63;35.92;;;;;;;;;;4984181;28;20050;-82
2021/07/27 08:51:57;;;;;;;47.30;36.35;;;;;;;;;;4983370;28;20042;-80
2021/07/27 08:54:24;;;;;;;45.75;36.42;;;;;;;;;;4985337;28;20058;-83
2021/07/27 08:56:51;;;;;;;44.35;35.97;;;;;;;;;;4973207;28;20072;-83
2021/07/27 08:59:17;;;;;;;42.28;34.55;;;;;;;;;;4979990;28;20082;-82
2021/07/27 09:01:44;;;;;;;43.50;35.25;;;;;;;;;;4980262;28;20485;-82
2021/07/27 09:04:10;;;;;;;43.25;35.35;;;;;;;;;;4951751;28;20082;-82
2021/07/27 09:06:37;;;;;;;42.53;35.10;;;;;;;;;;4956533;28;20047;-85
2021/07/27 09:09:07;;;;;;;41.38;34.75;;;;;;;;;;4969337;28;20547;-83
2021/07/27 09:11:43;;;;;;;41.47;33.22;;;;;;;;;;4964844;28;20488;-82
2021/07/27 09:14:11;;;;;;;39.92;32.58;;;;;;;;;;4962106;28;20070;-82
2021/07/27 09:16:47;;;;;;;38.25;32.88;;;;;;;;;;4977216;28;20050;-82
2021/07/27 09:19:13;;;;;;;36.60;31.15;;;;;;;;;;4971550;28;20050;-82
2021/07/27 09:21:42;;;;;;;35.65;30.58;;;;;;;;;;4966645;28;20109;-82
2021/07/27 09:24:08;;;;;;;36.30;30.52;;;;;;;;;;4968163;28;20054;-82
2021/07/27 09:26:34;;;;;;;35.60;29.58;;;;;;;;;;4974547;28;20050;-82
2021/07/27 09:29:02;;;;;;;34.40;30.63;;;;;;;;;;4957073;28;20125;-82
2021/07/27 09:31:28;;;;;;;34.38;29.33;;;;;;;;;;4966935;28;20501;-82
2021/07/27 09:33:54;;;;;;;35.20;30.05;;;;;;;;;;4980590;28;20542;-83
2021/07/27 09:36:27;;;;;;;35.67;31.25;;;;;;;;;;4992294;28;20483;-83
2021/07/27 09:39:01;;;;;;;35.47;29.60;;;;;;;;;;4991778;28;20050;-82
2021/07/27 09:41:31;;;;;;;32.22;28.67;;;;;;;;;;4990237;28;20058;-83
2021/07/27 09:43:57;;;;;;;34.97;30.63;;;;;;;;;;4991850;28;20089;-81
2021/07/27 09:46:27;;;;;;;30.92;27.55;;;;;;;;;;4992182;28;20403;-82
2021/07/27 09:48:53;;;;;;;33.75;28.10;;;;;;;;;;4973746;28;20504;-83
2021/07/27 09:51:20;;;;;;;33.72;29.13;;;;;;;;;;4989488;28;20480;-83
2021/07/27 09:53:47;;;;;;;33.67;28.23;;;;;;;;;;4989577;28;20062;-83
2021/07/27 09:56:13;;;;;;;31.45;28.00;;;;;;;;;;4989892;28;20499;-82
2021/07/27 09:58:40;;;;;;;31.80;27.77;;;;;;;;;;4990334;28;20046;-83
2021/07/27 10:01:11;;;;;;;34.28;30.58;;;;;;;;;;4969804;28;20051;-81
2021/07/27 10:03:57;;;;;;;32.35;27.88;;;;;;;;;;4989764;28;20046;-86
2021/07/27 10:06:34;;;;;;;34.08;28.58;;;;;;;;;;4974599;28;20372;-81
2021/07/27 10:09:01;;;;;;;29.73;26.20;;;;;;;;;;4990964;28;20078;-81
2021/07/27 10:11:43;;;;;;;33.28;28.65;;;;;;;;;;4977213;28;20466;-83
2021/07/27 10:14:15;;;;;;;33.22;28.23;;;;;;;;;;4979288;28;20061;-81
2021/07/27 10:16:41;;;;;;;30.67;27.38;;;;;;;;;;4979140;28;20046;-82
2021/07/27 10:19:18;;;;;;;28.73;25.45;;;;;;;;;;4991670;28;20054;-81
2021/07/27 10:21:45;;;;;;;31.95;27.08;;;;;;;;;;4972707;28;20077;-83
2021/07/27 10:24:15;;;;;;;32.40;28.90;;;;;;;;;;4991625;28;20055;-81
2021/07/27 10:26:42;;;;;;;30.50;26.38;;;;;;;;;;4973279;28;20077;-82
2021/07/27 10:29:08;;;;;;;30.92;27.05;;;;;;;;;;4990176;28;20132;-83
2021/07/27 10:31:37;;;;;;;29.42;25.35;;;;;;;;;;4990808;28;20133;-82
2021/07/27 10:34:07;;;;;;;31.17;27.80;;;;;;;;;;4984225;28;20060;-81
2021/07/27 10:36:37;;;;;;;32.55;26.15;;;;;;;;;;4991317;28;20057;-82
2021/07/27 10:39:08;;;;;;;28.45;24.55;;;;;;;;;;4991533;28;20496;-81
2021/07/27 10:41:35;;;;;;;26.17;23.40;;;;;;;;;;4989783;28;20052;-82
2021/07/27 10:44:05;;;;;;;28.90;25.50;;;;;;;;;;4971906;28;20463;-84
2021/07/27 10:46:35;;;;;;;28.50;24.73;;;;;;;;;;4958290;28;20053;-83
2021/07/27 10:49:01;;;;;;;29.45;25.15;;;;;;;;;;4963617;28;20084;-82
2021/07/27 10:51:27;;;;;;;27.73;24.85;;;;;;;;;;4977853;28;20501;-82
2021/07/27 10:53:54;;;;;;;24.27;21.73;;;;;;;;;;4976171;28;20130;-83
2021/07/27 10:56:22;;;;;;;27.30;24.38;;;;;;;;;;4978341;28;20481;-83
2021/07/27 10:58:48;;;;;;;27.60;23.42;;;;;;;;;;4980164;28;20066;-82
2021/07/27 11:01:14;;;;;;;27.05;23.63;;;;;;;;;;4956203;28;20055;-82
2021/07/27 11:03:43;;;;;;;27.83;24.33;;;;;;;;;;4956320;28;20077;-81
2021/07/27 11:06:09;;;;;;;28.08;24.35;;;;;;;;;;4957145;28;20497;-82
2021/07/27 11:08:36;;;;;;;28.90;25.52;;;;;;;;;;4956940;28;20051;-81
2021/07/27 11:11:05;;;;;;;33.17;26.63;;;;;;;;;;4961582;28;20059;-82
2021/07/27 11:13:32;;;;;;;26.33;22.80;;;;;;;;;;4954327;28;20397;-82
2021/07/27 11:16:00;;;;;;;26.10;22.20;;;;;;;;;;4955138;28;20259;-81
2021/07/27 11:18:28;;;;;;;22.80;19.35;;;;;;;;;;4961152;28;20133;-82
2021/07/27 11:20:56;;;;;;;21.85;19.58;;;;;;;;;;4961824;28;20437;-82
2021/07/27 11:23:23;;;;;;;19.05;16.98;;;;;;;;;;4963078;28;20055;-82
2021/07/27 11:25:57;;;;;;;23.70;19.58;;;;;;;;;;4954506;28;20069;-83
2021/07/27 11:28:32;;;;;;;24.23;18.45;;;;;;;;;;4957701;28;20376;-83
2021/07/27 11:30:58;;;;;;;21.25;18.58;;;;;;;;;;4958799;28;20055;-81
2021/07/27 11:33:24;;;;;;;20.00;17.70;;;;;;;;;;4965710;28;20046;-81
2021/07/27 11:35:52;;;;;;;20.80;18.60;;;;;;;;;;4963446;28;20070;-84
2021/07/27 11:38:21;;;;;;;20.05;17.33;;;;;;;;;;4970898;28;20205;-81
2021/07/27 11:40:48;;;;;;;23.33;18.17;;;;;;;;;;4969660;28;20140;-82
2021/07/27 11:43:14;;;;;;;23.30;19.23;;;;;;;;;;4968682;28;20194;-81
2021/07/27 11:45:41;;;;;;;25.38;20.02;;;;;;;;;;4967980;28;20382;-82
2021/07/27 11:48:08;;;;;;;23.25;18.58;;;;;;;;;;4968953;28;20501;-81
2021/07/27 11:50:35;;;;;;;20.60;18.08;;;;;;;;;;4969811;28;20507;-82
2021/07/27 11:53:05;;;;;;;21.73;18.60;;;;;;;;;;4969322;28;20065;-81
2021/07/27 11:55:32;;;;;;;23.70;18.92;;;;;;;;;;4955116;28;20043;-82
2021/07/27 11:57:59;;;;;;;21.27;18.98;;;;;;;;;;4944274;28;20102;-82
2021/07/27 12:00:25;;;;;;;24.40;20.48;;;;;;;;;;4969210;28;20528;-81
2021/07/27 12:02:52;;;;;;;23.67;20.55;;;;;;;;;;4974223;28;20389;-82
2021/07/27 12:05:18;;;;;;;24.52;21.70;;;;;;;;;;4979309;28;20051;-82
2021/07/27 12:07:47;;;;;;;26.08;22.83;;;;;;;;;;4959044;28;20065;-82
2021/07/27 12:10:14;;;;;;;27.83;21.90;;;;;;;;;;4974393;28;20051;-81
2021/07/27 12:12:40;;;;;;;28.52;24.17;;;;;;;;;;4969924;28;20070;-86
2021/07/27 12:15:07;;;;;;;23.73;20.42;;;;;;;;;;4955961;28;20082;-84
2021/07/27 12:17:34;;;;;;;23.23;20.83;;;;;;;;;;4964479;28;20508;-81
2021/07/27 12:20:00;;;;;;;25.45;20.90;;;;;;;;;;4958564;28;20444;-81
2021/07/27 12:22:26;;;;;;;27.25;22.88;;;;;;;;;;4976373;28;20043;-81
2021/07/27 12:24:53;;;;;;;26.40;23.17;;;;;;;;;;4974054;28;20492;-81
2021/07/27 12:27:19;;;;;;;26.40;23.52;;;;;;;;;;4975196;28;20419;-81
2021/07/27 12:29:45;;;;;;;27.77;24.10;;;;;;;;;;4956122;28;20074;-87
2021/07/27 12:32:11;;;;;;;25.80;22.45;;;;;;;;;;4972920;28;20488;-82
2021/07/27 12:34:37;;;;;;;25.25;21.30;;;;;;;;;;4974422;28;20141;-82
2021/07/27 12:37:03;;;;;;;24.50;21.85;;;;;;;;;;4974320;28;20567;-83
2021/07/27 12:39:30;;;;;;;22.83;20.00;;;;;;;;;;4972320;28;20058;-83
2021/07/27 12:41:56;;;;;;;23.15;20.50;;;;;;;;;;4975834;28;20496;-82
2021/07/27 12:44:22;;;;;;;24.83;20.65;;;;;;;;;;4956485;28;20429;-83
2021/07/27 12:46:49;;;;;;;24.30;20.38;;;;;;;;;;4962087;28;20056;-82
2021/07/27 12:49:16;;;;;;;26.63;21.33;;;;;;;;;;4957581;28;20043;-82
2021/07/27 12:51:43;;;;;;;25.13;21.90;;;;;;;;;;4958220;28;20065;-81
2021/07/27 12:54:10;;;;;;;24.83;21.25;;;;;;;;;;4973034;28;20500;-83
2021/07/27 12:56:37;;;;;;;26.17;22.20;;;;;;;;;;4960073;28;20054;-82
2021/07/27 12:59:07;;;;;;;24.23;21.63;;;;;;;;;;4970980;28;20047;-82
2021/07/27 13:01:33;;;;;;;25.83;22.42;;;;;;;;;;4972994;28;20054;-82
2021/07/27 13:04:03;;;;;;;27.02;22.85;;;;;;;;;;4973923;28;20499;-81
2021/07/27 13:06:30;;;;;;;26.63;22.70;;;;;;;;;;4976755;28;20092;-82
2021/07/27 13:09:00;;;;;;;24.73;21.63;;;;;;;;;;4974645;28;20417;-81
2021/07/27 13:11:26;;;;;;;26.63;22.70;;;;;;;;;;4966922;28;20053;-81
2021/07/27 13:13:53;;;;;;;27.10;21.90;;;;;;;;;;4975614;28;20051;-83
2021/07/27 13:16:19;;;;;;;26.92;21.05;;;;;;;;;;4974294;28;20058;-82
2021/07/27 13:18:46;;;;;;;23.50;20.60;;;;;;;;;;4984877;28;20054;-81
2021/07/27 13:21:12;;;;;;;21.85;19.48;;;;;;;;;;4973179;28;20630;-81
2021/07/27 13:23:42;;;;;;;22.05;19.52;;;;;;;;;;4961844;28;20054;-83
2021/07/27 13:26:09;;;;;;;22.13;19.67;;;;;;;;;;4965830;28;20097;-82
2021/07/27 13:28:35;;;;;;;26.65;21.85;;;;;;;;;;4971816;28;20126;-82
2021/07/27 13:31:02;;;;;;;24.00;21.48;;;;;;;;;;4979089;28;20078;-82
2021/07/27 13:33:28;;;;;;;24.98;21.73;;;;;;;;;;4986207;28;20522;-82
2021/07/27 13:35:54;;;;;;;23.95;21.08;;;;;;;;;;4992447;28;20480;-82
2021/07/27 13:38:20;;;;;;;24.35;20.98;;;;;;;;;;4974085;28;20129;-83
2021/07/27 13:40:47;;;;;;;22.35;19.45;;;;;;;;;;4991869;28;20050;-82
2021/07/27 13:43:13;;;;;;;22.88;20.02;;;;;;;;;;4974164;28;20117;-83
2021/07/27 13:45:39;;;;;;;19.50;17.25;;;;;;;;;;4991336;28;20054;-83
2021/07/27 13:48:05;;;;;;;19.15;17.15;;;;;;;;;;4990078;28;20050;-82
2021/07/27 13:50:31;;;;;;;18.83;15.85;;;;;;;;;;4971088;28;20061;-82
2021/07/27 13:52:58;;;;;;;19.98;17.35;;;;;;;;;;4989060;28;20116;-82
2021/07/27 13:55:24;;;;;;;20.05;17.95;;;;;;;;;;4992909;28;20167;-82
2021/07/27 13:57:50;;;;;;;20.80;18.63;;;;;;;;;;4989464;28;20053;-82
2021/07/27 14:00:19;;;;;;;20.08;17.95;;;;;;;;;;4991801;28;20054;-82
2021/07/27 14:02:46;;;;;;;22.13;18.88;;;;;;;;;;4973007;28;20066;-82
2021/07/27 14:05:12;;;;;;;21.23;18.92;;;;;;;;;;4991065;28;20073;-81
2021/07/27 14:07:39;;;;;;;20.90;18.27;;;;;;;;;;4991096;28;20439;-83
2021/07/27 14:10:06;;;;;;;22.70;19.10;;;;;;;;;;4986142;28;20139;-82
2021/07/27 14:12:33;;;;;;;20.90;18.30;;;;;;;;;;4983923;28;20053;-82
2021/07/27 14:15:01;;;;;;;19.42;16.17;;;;;;;;;;4983396;28;20062;-82
2021/07/27 14:17:27;;;;;;;20.67;17.45;;;;;;;;;;4976385;28;20094;-83
2021/07/27 14:19:54;;;;;;;19.05;17.08;;;;;;;;;;4972048;28;20055;-83
2021/07/27 14:22:20;;;;;;;20.77;18.33;;;;;;;;;;4972046;28;20073;-82
2021/07/27 14:24:47;;;;;;;23.17;17.95;;;;;;;;;;4973133;28;20054;-82
2021/07/27 14:27:13;;;;;;;20.77;18.42;;;;;;;;;;4957149;28;20584;-82
2021/07/27 14:29:39;;;;;;;23.27;19.55;;;;;;;;;;4975679;28;20051;-82
2021/07/27 14:32:06;;;;;;;23.08;19.65;;;;;;;;;;4965723;28;20489;-84
2021/07/27 14:34:32;;;;;;;23.30;20.90;;;;;;;;;;4977413;28;20436;-82
2021/07/27 14:36:58;;;;;;;23.75;21.25;;;;;;;;;;4976189;28;20058;-81
2021/07/27 14:39:25;;;;;;;24.33;21.55;;;;;;;;;;4975458;28;20074;-81
2021/07/27 14:41:51;;;;;;;23.98;21.40;;;;;;;;;;4959694;28;20100;-82
2021/07/27 14:44:17;;;;;;;25.05;21.70;;;;;;;;;;4975965;28;20073;-82
2021/07/27 14:46:43;;;;;;;22.95;20.60;;;;;;;;;;4972227;28;20109;-86
2021/07/27 14:49:10;;;;;;;22.73;20.30;;;;;;;;;;4977817;28;20062;-82